Ana Sayfa
METAR-TAF:

METAR-TAF

Havaalanları :

Monbetsu, Japonya

Enlem: 44-15N, Boylam: 143-32E, yükseklik: 6 m

Güncel hava durumu gözlemi

Rapor saat 07:00 UTC de 8 saat ve 36 dakika önce yapıldı.
Rüzgar batı/güneybatıdan 5 kt
Sıcaklık 2°C
Nem 75%
Basınç 1003 hPa
Görüş mesafesi 10 km veya daha fazla
3000 ft yükseklikte az bulutlu
4000 ft yükseklikte parçalı bulutlu
5000 ft yükseklikte parçalı çok bulutlu
hafif kar sağanakları

METAR: RJEB 170700Z 25005KT 9999 -SHSN FEW030 SCT040 BKN050 02/M02 Q1003

Saat: 00:36 (15:36 UTC)


TAF: eksik

4.000'den fazla havaalanı için hava durumu gözlemleri ve tahminleri (METAR ve TAF raporları).

Kullanılabilir istasyonlar harita üzerinde sarı ve kırmızı noktalarla gösterilir.

İstasyonun adını görmek için fareyi noktanın üzerinde gezdirin.

Sonrasında hava gözlem ve tahminlerini görmek için tıklayın.

Haritayı değiştirmek için: yaklaştırmak için siyah artı işaretli yeşil düğmeye ve uzaklaştırmak için de eksi işaretli düğmeye hızla tıklayın; bitişik haritalar için yeşil okları kullanın.


METAR-TAF: